sensor_id;sensor_type;location;lat;lon;timestamp;P1;P2;P0
13030;PMS7003;6582;54.644;9.760;2023-04-15T00:00:07;123.3;119.2;
13030;PMS7003;6582;54.644;9.760;2023-04-15T00:05:02;118.6;112.5;
13030;PMS7003;6582;54.644;9.760;2023-04-15T00:10:01;110.1;101.9;
13030;PMS7003;6582;54.644;9.760;2023-04-15T00:15:02;103.8;92.9;
13030;PMS7003;6582;54.644;9.760;2023-04-15T00:20:05;100.4;88.1;
13030;PMS7003;6582;54.644;9.760;2023-04-15T00:25:01;101.8;90.4;
13030;PMS7003;6582;54.644;9.760;2023-04-15T00:40:03;100.9;88.2;
13030;PMS7003;6582;54.644;9.760;2023-04-15T00:45:02;103.6;93.3;
13030;PMS7003;6582;54.644;9.760;2023-04-15T00:50:02;107.7;99.2;
13030;PMS7003;6582;54.644;9.760;2023-04-15T00:55:02;113.8;106.5;
13030;PMS7003;6582;54.644;9.760;2023-04-15T01:00:01;112.2;104.6;
13030;PMS7003;6582;54.644;9.760;2023-04-15T01:05:18;112.0;104.8;
13030;PMS7003;6582;54.644;9.760;2023-04-15T01:10:02;116.5;109.7;
13030;PMS7003;6582;54.644;9.760;2023-04-15T01:15:01;112.6;105.2;
13030;PMS7003;6582;54.644;9.760;2023-04-15T01:20:03;109.6;102.1;
13030;PMS7003;6582;54.644;9.760;2023-04-15T01:25:05;123.1;118.0;
13030;PMS7003;6582;54.644;9.760;2023-04-15T01:35:01;134.2;131.4;
13030;PMS7003;6582;54.644;9.760;2023-04-15T01:40:01;140.6;138.0;
13030;PMS7003;6582;54.644;9.760;2023-04-15T01:45:02;148.8;147.0;
13030;PMS7003;6582;54.644;9.760;2023-04-15T01:50:02;161.4;160.2;
13030;PMS7003;6582;54.644;9.760;2023-04-15T01:55:03;158.5;157.7;
13030;PMS7003;6582;54.644;9.760;2023-04-15T02:00:02;157.7;156.5;
13030;PMS7003;6582;54.644;9.760;2023-04-15T02:05:01;149.4;148.3;
13030;PMS7003;6582;54.644;9.760;2023-04-15T02:10:05;140.8;139.8;
13030;PMS7003;6582;54.644;9.760;2023-04-15T02:15:02;140.5;139.6;
13030;PMS7003;6582;54.644;9.760;2023-04-15T02:20:02;134.1;133.3;
13030;PMS7003;6582;54.644;9.760;2023-04-15T02:25:02;126.5;125.9;
13030;PMS7003;6582;54.644;9.760;2023-04-15T02:30:01;121.3;119.1;
13030;PMS7003;6582;54.644;9.760;2023-04-15T02:40:10;115.7;110.6;
13030;PMS7003;6582;54.644;9.760;2023-04-15T02:45:01;97.9;89.9;
13030;PMS7003;6582;54.644;9.760;2023-04-15T02:50:11;94.5;83.4;
13030;PMS7003;6582;54.644;9.760;2023-04-15T02:55:10;92.4;79.4;
13030;PMS7003;6582;54.644;9.760;2023-04-15T03:00:02;108.0;94.3;
13030;PMS7003;6582;54.644;9.760;2023-04-15T03:05:02;110.7;99.0;
13030;PMS7003;6582;54.644;9.760;2023-04-15T03:10:01;112.7;102.3;
13030;PMS7003;6582;54.644;9.760;2023-04-15T03:15:05;115.0;105.8;
13030;PMS7003;6582;54.644;9.760;2023-04-15T03:20:03;125.3;118.6;
13030;PMS7003;6582;54.644;9.760;2023-04-15T03:30:02;108.3;101.2;
13030;PMS7003;6582;54.644;9.760;2023-04-15T03:35:07;107.6;100.3;
13030;PMS7003;6582;54.644;9.760;2023-04-15T03:40:02;107.8;100.8;
13030;PMS7003;6582;54.644;9.760;2023-04-15T03:45:01;107.0;100.5;
13030;PMS7003;6582;54.644;9.760;2023-04-15T03:50:07;98.8;91.0;
13030;PMS7003;6582;54.644;9.760;2023-04-15T03:55:03;104.8;99.3;
13030;PMS7003;6582;54.644;9.760;2023-04-15T04:00:02;108.5;103.6;
13030;PMS7003;6582;54.644;9.760;2023-04-15T04:05:03;114.9;111.0;
13030;PMS7003;6582;54.644;9.760;2023-04-15T04:10:02;131.1;128.6;
13030;PMS7003;6582;54.644;9.760;2023-04-15T04:15:01;163.7;162.5;
13030;PMS7003;6582;54.644;9.760;2023-04-15T04:20:02;202.0;200.9;
13030;PMS7003;6582;54.644;9.760;2023-04-15T04:25:07;217.3;216.7;
13030;PMS7003;6582;54.644;9.760;2023-04-15T04:30:01;231.1;230.6;
13030;PMS7003;6582;54.644;9.760;2023-04-15T04:35:07;239.7;239.2;
13030;PMS7003;6582;54.644;9.760;2023-04-15T04:40:01;222.4;221.5;
13030;PMS7003;6582;54.644;9.760;2023-04-15T04:45:01;195.2;194.0;
13030;PMS7003;6582;54.644;9.760;2023-04-15T04:50:01;198.2;197.0;
13030;PMS7003;6582;54.644;9.760;2023-04-15T04:55:01;214.8;213.0;
13030;PMS7003;6582;54.644;9.760;2023-04-15T05:00:03;218.7;216.0;
13030;PMS7003;6582;54.644;9.760;2023-04-15T05:05:01;224.1;221.8;
13030;PMS7003;6582;54.644;9.760;2023-04-15T05:10:01;241.6;239.5;
13030;PMS7003;6582;54.644;9.760;2023-04-15T05:15:02;247.1;245.1;
13030;PMS7003;6582;54.644;9.760;2023-04-15T05:20:02;245.1;243.4;
13030;PMS7003;6582;54.644;9.760;2023-04-15T05:25:02;251.8;250.6;
13030;PMS7003;6582;54.644;9.760;2023-04-15T05:30:01;273.0;271.7;
13030;PMS7003;6582;54.644;9.760;2023-04-15T05:35:02;271.8;270.2;
13030;PMS7003;6582;54.644;9.760;2023-04-15T05:40:08;252.9;251.3;
13030;PMS7003;6582;54.644;9.760;2023-04-15T05:50:07;230.4;228.4;
13030;PMS7003;6582;54.644;9.760;2023-04-15T05:55:01;207.3;205.5;
13030;PMS7003;6582;54.644;9.760;2023-04-15T06:00:02;171.6;168.7;
13030;PMS7003;6582;54.644;9.760;2023-04-15T06:05:02;149.9;146.7;
13030;PMS7003;6582;54.644;9.760;2023-04-15T06:10:02;157.1;152.6;
13030;PMS7003;6582;54.644;9.760;2023-04-15T06:15:01;167.0;161.8;
13030;PMS7003;6582;54.644;9.760;2023-04-15T06:20:02;179.1;173.7;
13030;PMS7003;6582;54.644;9.760;2023-04-15T06:25:01;190.7;186.2;
13030;PMS7003;6582;54.644;9.760;2023-04-15T06:35:01;179.8;174.2;
13030;PMS7003;6582;54.644;9.760;2023-04-15T06:40:02;196.0;191.0;
13030;PMS7003;6582;54.644;9.760;2023-04-15T06:45:03;177.6;173.0;
13030;PMS7003;6582;54.644;9.760;2023-04-15T06:50:06;154.4;148.9;
13030;PMS7003;6582;54.644;9.760;2023-04-15T06:55:02;135.8;128.2;
13030;PMS7003;6582;54.644;9.760;2023-04-15T07:00:02;136.6;129.2;
13030;PMS7003;6582;54.644;9.760;2023-04-15T07:05:07;103.9;95.3;
13030;PMS7003;6582;54.644;9.760;2023-04-15T07:10:01;100.2;91.0;
13030;PMS7003;6582;54.644;9.760;2023-04-15T07:15:01;99.3;89.1;
13030;PMS7003;6582;54.644;9.760;2023-04-15T07:20:06;99.0;89.2;
13030;PMS7003;6582;54.644;9.760;2023-04-15T07:25:08;98.2;87.4;
13030;PMS7003;6582;54.644;9.760;2023-04-15T07:35:02;97.1;85.4;
13030;PMS7003;6582;54.644;9.760;2023-04-15T07:40:02;95.4;82.0;
13030;PMS7003;6582;54.644;9.760;2023-04-15T07:45:01;93.9;78.8;
13030;PMS7003;6582;54.644;9.760;2023-04-15T07:50:08;92.7;76.5;
13030;PMS7003;6582;54.644;9.760;2023-04-15T07:55:05;94.5;79.2;
13030;PMS7003;6582;54.644;9.760;2023-04-15T08:00:06;96.6;81.7;
13030;PMS7003;6582;54.644;9.760;2023-04-15T08:05:02;96.0;81.5;
13030;PMS7003;6582;54.644;9.760;2023-04-15T08:10:11;96.4;82.6;
13030;PMS7003;6582;54.644;9.760;2023-04-15T08:15:02;96.8;83.4;
13030;PMS7003;6582;54.644;9.760;2023-04-15T08:20:11;104.5;91.9;
13030;PMS7003;6582;54.644;9.760;2023-04-15T08:25:01;102.5;89.2;
13030;PMS7003;6582;54.644;9.760;2023-04-15T08:30:07;102.8;89.0;
13030;PMS7003;6582;54.644;9.760;2023-04-15T08:35:01;102.6;88.5;
13030;PMS7003;6582;54.644;9.760;2023-04-15T08:45:03;92.2;74.6;
13030;PMS7003;6582;54.644;9.760;2023-04-15T08:50:02;92.0;74.6;
13030;PMS7003;6582;54.644;9.760;2023-04-15T08:55:01;92.3;75.3;
13030;PMS7003;6582;54.644;9.760;2023-04-15T09:00:05;92.7;75.9;
13030;PMS7003;6582;54.644;9.760;2023-04-15T09:05:08;97.6;80.9;
13030;PMS7003;6582;54.644;9.760;2023-04-15T09:15:07;97.6;80.8;
13030;PMS7003;6582;54.644;9.760;2023-04-15T09:20:09;98.3;81.8;
13030;PMS7003;6582;54.644;9.760;2023-04-15T09:30:01;93.2;77.3;
13030;PMS7003;6582;54.644;9.760;2023-04-15T09:35:09;93.6;78.5;
13030;PMS7003;6582;54.644;9.760;2023-04-15T10:05:01;95.6;84.4;
13030;PMS7003;6582;54.644;9.760;2023-04-15T10:10:11;97.3;88.0;
13030;PMS7003;6582;54.644;9.760;2023-04-15T10:15:02;95.3;84.0;
13030;PMS7003;6582;54.644;9.760;2023-04-15T10:20:02;98.1;87.5;
13030;PMS7003;6582;54.644;9.760;2023-04-15T10:25:02;101.2;90.8;
13030;PMS7003;6582;54.644;9.760;2023-04-15T10:30:01;104.0;93.6;
13030;PMS7003;6582;54.644;9.760;2023-04-15T10:35:11;107.2;97.0;
13030;PMS7003;6582;54.644;9.760;2023-04-15T10:40:22;114.1;105.3;
13030;PMS7003;6582;54.644;9.760;2023-04-15T10:55:18;114.4;104.6;
13030;PMS7003;6582;54.644;9.760;2023-04-15T11:35:01;81.6;70.6;
13030;PMS7003;6582;54.644;9.760;2023-04-15T11:40:07;83.3;73.6;
13030;PMS7003;6582;54.644;9.760;2023-04-15T11:45:12;96.1;86.9;
13030;PMS7003;6582;54.644;9.760;2023-04-15T12:05:03;81.0;71.6;
13030;PMS7003;6582;54.644;9.760;2023-04-15T12:10:08;82.3;70.2;
13030;PMS7003;6582;54.644;9.760;2023-04-15T12:15:08;81.8;68.8;
13030;PMS7003;6582;54.644;9.760;2023-04-15T12:20:02;82.0;69.4;
13030;PMS7003;6582;54.644;9.760;2023-04-15T12:25:08;82.1;69.9;
13030;PMS7003;6582;54.644;9.760;2023-04-15T12:30:02;83.6;71.8;
13030;PMS7003;6582;54.644;9.760;2023-04-15T12:35:07;84.7;73.2;
13030;PMS7003;6582;54.644;9.760;2023-04-15T12:40:07;85.8;75.1;
13030;PMS7003;6582;54.644;9.760;2023-04-15T12:45:02;85.7;74.3;
13030;PMS7003;6582;54.644;9.760;2023-04-15T12:50:02;86.6;74.7;
13030;PMS7003;6582;54.644;9.760;2023-04-15T12:55:07;85.8;73.0;
13030;PMS7003;6582;54.644;9.760;2023-04-15T13:00:03;84.0;72.3;
13030;PMS7003;6582;54.644;9.760;2023-04-15T13:05:02;82.8;71.4;
13030;PMS7003;6582;54.644;9.760;2023-04-15T13:10:02;83.2;73.4;
13030;PMS7003;6582;54.644;9.760;2023-04-15T13:15:03;82.0;72.4;
13030;PMS7003;6582;54.644;9.760;2023-04-15T13:20:02;81.5;71.8;
13030;PMS7003;6582;54.644;9.760;2023-04-15T13:30:02;81.8;70.9;
13030;PMS7003;6582;54.644;9.760;2023-04-15T13:35:02;81.3;68.2;
13030;PMS7003;6582;54.644;9.760;2023-04-15T13:40:02;82.8;69.6;
13030;PMS7003;6582;54.644;9.760;2023-04-15T13:45:02;83.5;70.3;
13030;PMS7003;6582;54.644;9.760;2023-04-15T13:50:02;84.6;71.6;
13030;PMS7003;6582;54.644;9.760;2023-04-15T13:55:16;85.4;72.4;
13030;PMS7003;6582;54.644;9.760;2023-04-15T14:00:02;87.0;74.5;
13030;PMS7003;6582;54.644;9.760;2023-04-15T14:05:02;86.7;75.7;
13030;PMS7003;6582;54.644;9.760;2023-04-15T14:10:07;86.2;75.0;
13030;PMS7003;6582;54.644;9.760;2023-04-15T14:15:02;86.3;74.8;
13030;PMS7003;6582;54.644;9.760;2023-04-15T14:20:07;85.6;75.0;
13030;PMS7003;6582;54.644;9.760;2023-04-15T14:25:02;89.0;79.0;
13030;PMS7003;6582;54.644;9.760;2023-04-15T14:30:02;89.4;79.9;
13030;PMS7003;6582;54.644;9.760;2023-04-15T14:35:10;89.8;80.5;
13030;PMS7003;6582;54.644;9.760;2023-04-15T14:40:02;89.4;80.6;
13030;PMS7003;6582;54.644;9.760;2023-04-15T14:45:02;92.5;85.0;
13030;PMS7003;6582;54.644;9.760;2023-04-15T14:50:02;88.5;81.4;
13030;PMS7003;6582;54.644;9.760;2023-04-15T14:55:02;87.4;78.6;
13030;PMS7003;6582;54.644;9.760;2023-04-15T15:00:02;87.6;78.1;
13030;PMS7003;6582;54.644;9.760;2023-04-15T15:05:02;88.0;77.6;
13030;PMS7003;6582;54.644;9.760;2023-04-15T15:10:02;85.2;72.6;
13030;PMS7003;6582;54.644;9.760;2023-04-15T15:15:19;84.4;71.3;
13030;PMS7003;6582;54.644;9.760;2023-04-15T15:20:02;84.2;71.1;
13030;PMS7003;6582;54.644;9.760;2023-04-15T15:25:02;84.9;73.3;
13030;PMS7003;6582;54.644;9.760;2023-04-15T15:30:02;84.5;73.4;
13030;PMS7003;6582;54.644;9.760;2023-04-15T15:35:02;84.4;73.2;
13030;PMS7003;6582;54.644;9.760;2023-04-15T15:40:03;84.2;72.1;
13030;PMS7003;6582;54.644;9.760;2023-04-15T15:45:02;85.5;73.6;
13030;PMS7003;6582;54.644;9.760;2023-04-15T15:50:08;85.0;72.0;
13030;PMS7003;6582;54.644;9.760;2023-04-15T15:55:02;85.5;71.8;
13030;PMS7003;6582;54.644;9.760;2023-04-15T16:00:14;85.8;72.4;
13030;PMS7003;6582;54.644;9.760;2023-04-15T16:05:03;87.4;74.4;
13030;PMS7003;6582;54.644;9.760;2023-04-15T16:10:02;87.2;73.5;
13030;PMS7003;6582;54.644;9.760;2023-04-15T16:15:01;85.6;71.2;
13030;PMS7003;6582;54.644;9.760;2023-04-15T16:20:02;89.2;74.9;
13030;PMS7003;6582;54.644;9.760;2023-04-15T16:25:02;88.8;74.4;
13030;PMS7003;6582;54.644;9.760;2023-04-15T16:30:02;88.5;73.8;
13030;PMS7003;6582;54.644;9.760;2023-04-15T16:35:07;87.7;73.0;
13030;PMS7003;6582;54.644;9.760;2023-04-15T16:40:02;89.2;75.1;
13030;PMS7003;6582;54.644;9.760;2023-04-15T16:45:02;84.8;70.3;
13030;PMS7003;6582;54.644;9.760;2023-04-15T16:50:01;85.0;70.0;
13030;PMS7003;6582;54.644;9.760;2023-04-15T16:55:02;84.2;69.0;
13030;PMS7003;6582;54.644;9.760;2023-04-15T17:00:02;84.4;69.1;
13030;PMS7003;6582;54.644;9.760;2023-04-15T17:05:02;87.3;71.8;
13030;PMS7003;6582;54.644;9.760;2023-04-15T17:10:03;88.4;72.5;
13030;PMS7003;6582;54.644;9.760;2023-04-15T17:15:02;89.2;73.0;
13030;PMS7003;6582;54.644;9.760;2023-04-15T17:20:02;89.3;72.5;
13030;PMS7003;6582;54.644;9.760;2023-04-15T17:25:02;89.9;72.3;
13030;PMS7003;6582;54.644;9.760;2023-04-15T17:30:02;86.8;68.4;
13030;PMS7003;6582;54.644;9.760;2023-04-15T17:35:02;85.4;66.7;
13030;PMS7003;6582;54.644;9.760;2023-04-15T17:40:02;84.2;65.4;
13030;PMS7003;6582;54.644;9.760;2023-04-15T17:45:02;84.3;65.4;
13030;PMS7003;6582;54.644;9.760;2023-04-15T17:50:01;82.6;63.9;
13030;PMS7003;6582;54.644;9.760;2023-04-15T17:55:02;81.8;63.1;
13030;PMS7003;6582;54.644;9.760;2023-04-15T18:00:01;80.9;62.9;
13030;PMS7003;6582;54.644;9.760;2023-04-15T18:05:03;80.8;63.0;
13030;PMS7003;6582;54.644;9.760;2023-04-15T18:10:02;79.5;62.4;
13030;PMS7003;6582;54.644;9.760;2023-04-15T18:15:07;80.4;62.8;
13030;PMS7003;6582;54.644;9.760;2023-04-15T18:20:02;80.9;63.0;
13030;PMS7003;6582;54.644;9.760;2023-04-15T18:25:07;81.6;63.4;
13030;PMS7003;6582;54.644;9.760;2023-04-15T18:30:07;82.4;63.8;
13030;PMS7003;6582;54.644;9.760;2023-04-15T18:35:02;83.1;63.7;
13030;PMS7003;6582;54.644;9.760;2023-04-15T18:40:02;82.2;63.0;
13030;PMS7003;6582;54.644;9.760;2023-04-15T18:45:02;82.1;62.8;
13030;PMS7003;6582;54.644;9.760;2023-04-15T18:50:02;81.6;62.4;
13030;PMS7003;6582;54.644;9.760;2023-04-15T18:55:02;80.9;61.7;
13030;PMS7003;6582;54.644;9.760;2023-04-15T19:00:03;87.0;70.5;
13030;PMS7003;6582;54.644;9.760;2023-04-15T19:05:07;87.1;70.6;
13030;PMS7003;6582;54.644;9.760;2023-04-15T19:10:02;87.2;71.0;
13030;PMS7003;6582;54.644;9.760;2023-04-15T19:15:06;88.0;71.3;
13030;PMS7003;6582;54.644;9.760;2023-04-15T19:20:01;87.4;71.0;
13030;PMS7003;6582;54.644;9.760;2023-04-15T19:25:07;81.6;62.2;
13030;PMS7003;6582;54.644;9.760;2023-04-15T19:30:02;81.4;62.2;
13030;PMS7003;6582;54.644;9.760;2023-04-15T19:35:02;80.8;61.2;
13030;PMS7003;6582;54.644;9.760;2023-04-15T19:40:07;80.0;61.0;
13030;PMS7003;6582;54.644;9.760;2023-04-15T19:45:02;91.9;74.9;
13030;PMS7003;6582;54.644;9.760;2023-04-15T19:50:06;92.2;75.1;
13030;PMS7003;6582;54.644;9.760;2023-04-15T19:55:07;93.2;75.8;
13030;PMS7003;6582;54.644;9.760;2023-04-15T20:00:03;94.4;77.0;
13030;PMS7003;6582;54.644;9.760;2023-04-15T20:05:11;95.8;77.9;
13030;PMS7003;6582;54.644;9.760;2023-04-15T20:10:02;85.6;66.0;
13030;PMS7003;6582;54.644;9.760;2023-04-15T20:15:01;85.7;67.3;
13030;PMS7003;6582;54.644;9.760;2023-04-15T20:20:02;85.0;67.5;
13030;PMS7003;6582;54.644;9.760;2023-04-15T20:25:02;84.4;67.2;
13030;PMS7003;6582;54.644;9.760;2023-04-15T20:30:01;84.4;67.0;
13030;PMS7003;6582;54.644;9.760;2023-04-15T20:35:08;83.4;65.8;
13030;PMS7003;6582;54.644;9.760;2023-04-15T20:40:02;84.1;66.3;
13030;PMS7003;6582;54.644;9.760;2023-04-15T20:45:02;85.3;67.0;
13030;PMS7003;6582;54.644;9.760;2023-04-15T20:50:02;86.1;69.0;
13030;PMS7003;6582;54.644;9.760;2023-04-15T20:55:07;87.3;71.0;
13030;PMS7003;6582;54.644;9.760;2023-04-15T21:00:02;88.8;72.4;
13030;PMS7003;6582;54.644;9.760;2023-04-15T21:05:03;90.8;75.8;
13030;PMS7003;6582;54.644;9.760;2023-04-15T21:10:04;93.4;79.6;
13030;PMS7003;6582;54.644;9.760;2023-04-15T21:15:02;97.5;85.5;
13030;PMS7003;6582;54.644;9.760;2023-04-15T21:20:04;96.6;84.2;
13030;PMS7003;6582;54.644;9.760;2023-04-15T21:25:02;95.8;83.4;
13030;PMS7003;6582;54.644;9.760;2023-04-15T21:30:07;94.7;80.5;
13030;PMS7003;6582;54.644;9.760;2023-04-15T21:35:07;92.6;77.0;
13030;PMS7003;6582;54.644;9.760;2023-04-15T21:40:07;93.4;77.8;
13030;PMS7003;6582;54.644;9.760;2023-04-15T21:45:06;93.6;78.4;
13030;PMS7003;6582;54.644;9.760;2023-04-15T21:50:03;95.1;81.0;
13030;PMS7003;6582;54.644;9.760;2023-04-15T21:55:02;96.5;83.8;
13030;PMS7003;6582;54.644;9.760;2023-04-15T22:00:01;97.7;86.4;
13030;PMS7003;6582;54.644;9.760;2023-04-15T22:05:06;93.4;79.2;
13030;PMS7003;6582;54.644;9.760;2023-04-15T22:10:07;92.9;77.9;
13030;PMS7003;6582;54.644;9.760;2023-04-15T22:15:02;91.8;75.3;
13030;PMS7003;6582;54.644;9.760;2023-04-15T22:20:02;89.6;71.8;
13030;PMS7003;6582;54.644;9.760;2023-04-15T22:25:02;97.4;81.3;
13030;PMS7003;6582;54.644;9.760;2023-04-15T22:30:01;98.5;82.8;
13030;PMS7003;6582;54.644;9.760;2023-04-15T22:35:02;99.4;84.7;
13030;PMS7003;6582;54.644;9.760;2023-04-15T22:40:06;99.7;86.0;
13030;PMS7003;6582;54.644;9.760;2023-04-15T22:45:01;101.3;88.4;
13030;PMS7003;6582;54.644;9.760;2023-04-15T22:50:01;93.9;78.3;
13030;PMS7003;6582;54.644;9.760;2023-04-15T22:55:02;93.3;78.2;
13030;PMS7003;6582;54.644;9.760;2023-04-15T23:00:07;94.4;80.1;
13030;PMS7003;6582;54.644;9.760;2023-04-15T23:05:13;96.7;84.0;
13030;PMS7003;6582;54.644;9.760;2023-04-15T23:10:01;95.3;82.2;
13030;PMS7003;6582;54.644;9.760;2023-04-15T23:20:02;93.4;80.1;
13030;PMS7003;6582;54.644;9.760;2023-04-15T23:25:03;92.8;79.8;
13030;PMS7003;6582;54.644;9.760;2023-04-15T23:30:02;91.8;77.4;
13030;PMS7003;6582;54.644;9.760;2023-04-15T23:35:07;91.1;76.0;
13030;PMS7003;6582;54.644;9.760;2023-04-15T23:40:06;92.6;78.4;
13030;PMS7003;6582;54.644;9.760;2023-04-15T23:45:02;94.3;82.3;
13030;PMS7003;6582;54.644;9.760;2023-04-15T23:55:02;95.5;84.0;
